Time;durP1;ratioP1;P1;durP2;ratioP2;P2;SDS_P1;SDS_P2;PMS_P1;PMS_P2;Temp;Humidity;BMP_temperature;BMP_pressure;BME280_temperature;BME280_humidity;BME280_pressure;Samples;Min_cycle;Max_cycle;Signal;HPM_P1;HPM_P2
2021/04/21 00:03:38;;;;;;;0.53;0.50;;;14.60;99.90;;;;;;20495908;28;20706;-73
2021/04/21 00:13:43;;;;;;;0.43;0.43;;;14.60;99.90;;;;;;20454993;28;20212;-73
2021/04/21 00:23:49;;;;;;;0.47;0.47;;;14.60;99.90;;;;;;20452956;28;20450;-73
2021/04/21 00:33:55;;;;;;;0.50;0.30;;;14.60;99.90;;;;;;20476086;28;20656;-72
2021/04/21 00:44:10;;;;;;;1.23;0.83;;;14.50;99.90;;;;;;20514631;28;20251;-72
2021/04/21 00:54:19;;;;;;;0.30;0.30;;;14.50;99.90;;;;;;20531655;28;20258;-75
2021/04/21 01:04:24;;;;;;;0.20;0.07;;;14.40;99.90;;;;;;20485311;28;20237;-73
2021/04/21 01:14:29;;;;;;;2.00;0.53;;;14.30;99.90;;;;;;20451276;29;20200;-74
2021/04/21 01:24:45;;;;;;;0.20;0.10;;;14.20;99.90;;;;;;20447857;29;20220;-73
2021/04/21 01:34:51;;;;;;;0.30;0.30;;;14.20;99.90;;;;;;20482830;28;20200;-73
2021/04/21 01:44:55;;;;;;;0.30;0.27;;;14.20;99.90;;;;;;20527873;28;20282;-74
2021/04/21 01:55:03;;;;;;;0.20;0.20;;;14.00;99.90;;;;;;20543736;28;20200;-74
2021/04/21 02:05:14;;;;;;;0.40;0.33;;;13.90;99.90;;;;;;20543227;28;20739;-73
2021/04/21 02:15:26;;;;;;;0.40;0.40;;;13.70;99.90;;;;;;20543994;28;20848;-74
2021/04/21 02:25:51;;;;;;;1.07;0.70;;;13.80;99.90;;;;;;20541111;28;20228;-73
2021/04/21 02:35:59;;;;;;;3.50;0.47;;;13.80;99.90;;;;;;20504363;28;20662;-72
2021/04/21 02:46:10;;;;;;;0.93;0.77;;;13.70;99.90;;;;;;20441368;28;20729;-73
2021/04/21 02:56:23;;;;;;;1.20;0.77;;;13.70;99.90;;;;;;20460826;29;20200;-73
2021/04/21 03:06:29;;;;;;;0.43;0.43;;;13.70;99.90;;;;;;20459154;29;20240;-70
2021/04/21 03:16:36;;;;;;;1.83;1.27;;;13.50;99.90;;;;;;20458316;29;20200;-71
2021/04/21 03:26:41;;;;;;;0.20;0.13;;;13.50;99.90;;;;;;20458928;29;20368;-71
2021/04/21 03:36:44;;;;;;;0.30;0.30;;;13.40;99.90;;;;;;20499812;28;20618;-72
2021/04/21 03:46:48;;;;;;;0.37;0.30;;;13.40;99.90;;;;;;20519958;28;20224;-71
2021/04/21 03:56:52;;;;;;;0.30;0.30;;;13.30;99.90;;;;;;20535037;28;20264;-71
2021/04/21 04:06:56;;;;;;;0.57;0.20;;;13.30;99.90;;;;;;20472081;28;20240;-73
2021/04/21 04:17:01;;;;;;;0.73;0.73;;;13.20;99.90;;;;;;20459081;29;20205;-72
2021/04/21 04:27:08;;;;;;;0.20;0.10;;;13.10;99.90;;;;;;20455571;28;20225;-71
2021/04/21 04:37:13;;;;;;;0.20;0.10;;;13.10;99.90;;;;;;20502626;28;20200;-74
2021/04/21 04:47:21;;;;;;;0.90;0.30;;;13.00;99.90;;;;;;20533322;28;20374;-72
2021/04/21 04:57:25;;;;;;;0.20;0.20;;;12.80;99.90;;;;;;20451563;28;20211;-72
2021/04/21 05:07:39;;;;;;;2.07;0.60;;;12.80;99.90;;;;;;20452596;28;20248;-72
2021/04/21 05:18:22;;;;;;;0.70;0.30;;;12.70;99.90;;;;;;20469467;29;20203;-72
2021/04/21 05:29:21;;;;;;;0.77;0.77;;;12.60;99.90;;;;;;20464895;29;20193;-73
2021/04/21 05:40:07;;;;;;;0.20;0.20;;;12.50;99.90;;;;;;20464463;29;20283;-75
2021/04/21 05:50:42;;;;;;;0.20;0.20;;;12.50;99.90;;;;;;20461634;29;20207;-75
2021/04/21 06:01:24;;;;;;;0.20;0.13;;;12.80;99.90;;;;;;20461633;29;20225;-76
2021/04/21 06:11:29;;;;;;;0.20;0.20;;;12.80;99.90;;;;;;20460064;29;20251;-73
2021/04/21 06:21:35;;;;;;;0.20;0.17;;;12.70;99.90;;;;;;20460837;28;20286;-76
2021/04/21 06:31:40;;;;;;;0.20;0.20;;;13.00;99.90;;;;;;20463803;29;20506;-75
2021/04/21 06:41:45;;;;;;;0.50;0.43;;;13.30;99.90;;;;;;20460697;29;20228;-75
2021/04/21 06:51:47;;;;;;;0.20;0.20;;;13.40;99.90;;;;;;20462780;29;20201;-75
2021/04/21 07:01:51;;;;;;;0.30;0.30;;;13.40;99.90;;;;;;20508701;29;20284;-75
2021/04/21 07:11:58;;;;;;;0.47;0.17;;;13.60;99.90;;;;;;20460750;28;20236;-74
2021/04/21 07:22:01;;;;;;;0.20;0.10;;;13.80;99.90;;;;;;20436083;29;20221;-74
2021/04/21 07:32:18;;;;;;;0.40;0.40;;;14.30;99.90;;;;;;20440584;29;20205;-74
2021/04/21 07:42:22;;;;;;;0.83;0.83;;;14.20;99.90;;;;;;20411933;29;20380;-74
2021/04/21 07:52:26;;;;;;;0.20;0.00;;;14.00;99.90;;;;;;20453031;29;20534;-72
2021/04/21 08:02:34;;;;;;;0.20;0.20;;;14.00;99.90;;;;;;20452553;29;20236;-74
2021/04/21 08:12:38;;;;;;;0.70;0.30;;;14.10;99.90;;;;;;20453342;29;20335;-75
2021/04/21 08:22:54;;;;;;;0.63;0.63;;;14.20;99.90;;;;;;20450027;29;20580;-74
2021/04/21 08:32:57;;;;;;;0.60;0.50;;;14.30;99.90;;;;;;20450641;29;20192;-74
2021/04/21 08:43:03;;;;;;;0.20;0.20;;;14.50;99.90;;;;;;20428925;29;20212;-74
2021/04/21 08:53:08;;;;;;;0.30;0.30;;;14.70;99.90;;;;;;20451611;29;20205;-75
2021/04/21 09:03:12;;;;;;;0.63;0.33;;;15.00;99.90;;;;;;20429682;29;20565;-74
2021/04/21 09:13:15;;;;;;;0.53;0.53;;;15.00;99.90;;;;;;20447053;29;20639;-74
2021/04/21 09:23:19;;;;;;;0.20;0.10;;;15.30;99.90;;;;;;20447059;29;20231;-74
2021/04/21 09:33:26;;;;;;;0.40;0.40;;;15.30;99.90;;;;;;20447720;29;20197;-74
2021/04/21 09:43:32;;;;;;;0.20;0.17;;;15.60;99.90;;;;;;20445957;29;20240;-74
2021/04/21 09:53:36;;;;;;;2.43;1.23;;;14.50;99.90;;;;;;20447145;28;20689;-74
2021/04/21 10:03:40;;;;;;;0.50;0.50;;;14.10;99.90;;;;;;20463535;29;20462;-73
2021/04/21 10:13:44;;;;;;;0.73;0.67;;;13.90;99.90;;;;;;20461845;29;20250;-72
2021/04/21 10:23:49;;;;;;;0.47;0.47;;;13.70;99.90;;;;;;20462820;29;20263;-73
2021/04/21 10:33:53;;;;;;;0.93;0.47;;;13.90;99.90;;;;;;20458409;28;20199;-74
2021/04/21 10:44:13;;;;;;;0.20;0.10;;;14.00;99.90;;;;;;20459328;29;20248;-73
2021/04/21 10:54:16;;;;;;;0.40;0.40;;;14.80;99.90;;;;;;20459703;29;20544;-71
2021/04/21 11:04:58;;;;;;;0.20;0.10;;;16.00;99.90;;;;;;20458104;29;20316;-73
2021/04/21 11:15:01;;;;;;;0.30;0.23;;;15.00;99.90;;;;;;20457411;29;20209;-72
2021/04/21 11:25:24;;;;;;;0.40;0.40;;;15.00;99.90;;;;;;20455662;29;20220;-73
2021/04/21 11:35:31;;;;;;;0.87;0.50;;;15.90;99.90;;;;;;20457753;29;20681;-73
2021/04/21 11:45:38;;;;;;;0.20;0.20;;;16.10;99.90;;;;;;20455131;29;20232;-70
2021/04/21 11:55:51;;;;;;;0.47;0.40;;;15.80;99.90;;;;;;20454874;29;20215;-72
2021/04/21 12:05:57;;;;;;;0.60;0.40;;;16.20;99.90;;;;;;20453697;29;20228;-74
2021/04/21 12:16:08;;;;;;;0.20;0.10;;;16.40;99.90;;;;;;20451699;29;20302;-73
2021/04/21 12:26:19;;;;;;;0.30;0.17;;;16.10;99.90;;;;;;20448635;28;20322;-68
2021/04/21 12:36:24;;;;;;;0.30;0.20;;;15.20;99.90;;;;;;20429443;29;20710;-71
2021/04/21 12:46:27;;;;;;;0.20;0.20;;;15.30;99.90;;;;;;20447528;29;20244;-73
2021/04/21 12:56:51;;;;;;;0.83;0.53;;;14.80;99.90;;;;;;20450282;29;20201;-72
2021/04/21 13:06:54;;;;;;;0.20;0.10;;;14.80;99.90;;;;;;20475820;29;20769;-72
2021/04/21 13:16:57;;;;;;;0.30;0.30;;;14.90;99.90;;;;;;20449613;29;20197;-71
2021/04/21 13:27:02;;;;;;;0.30;0.23;;;14.90;99.90;;;;;;20431038;29;20224;-72
2021/04/21 13:37:05;;;;;;;1.03;0.67;;;15.10;99.90;;;;;;20460846;28;20497;-73
2021/04/21 13:47:20;;;;;;;0.23;0.20;;;15.90;99.90;;;;;;20462583;29;20295;-72
2021/04/21 13:57:23;;;;;;;0.30;0.30;;;19.00;99.90;;;;;;20446443;29;20197;-68
2021/04/21 14:07:26;;;;;;;0.20;0.20;;;20.00;99.90;;;;;;20460099;29;20232;-71
2021/04/21 14:17:29;;;;;;;0.53;0.47;;;19.80;99.90;;;;;;20461056;29;20204;-68
2021/04/21 14:27:32;;;;;;;0.20;0.20;;;19.10;99.90;;;;;;20459037;29;20233;-71
2021/04/21 14:37:35;;;;;;;1.80;1.40;;;19.50;99.90;;;;;;20440306;29;20197;-72
2021/04/21 14:47:39;;;;;;;0.20;0.10;;;17.50;99.90;;;;;;20458271;28;20331;-70
2021/04/21 14:57:42;;;;;;;0.20;0.10;;;16.60;99.90;;;;;;20458620;29;20201;-71
2021/04/21 15:07:51;;;;;;;0.60;0.60;;;16.60;99.90;;;;;;20454823;29;20237;-72
2021/04/21 15:17:54;;;;;;;0.20;0.10;;;16.50;99.90;;;;;;20448504;29;20565;-74
2021/04/21 15:27:59;;;;;;;0.20;0.10;;;16.40;99.90;;;;;;20443949;29;20228;-73
2021/04/21 15:38:02;;;;;;;0.20;0.10;;;16.30;99.90;;;;;;20437407;29;20197;-70
2021/04/21 15:48:07;;;;;;;0.20;0.20;;;16.30;99.90;;;;;;20452971;29;20252;-73
2021/04/21 15:58:12;;;;;;;0.33;0.30;;;18.30;99.90;;;;;;20451553;28;20211;-72
2021/04/21 16:08:16;;;;;;;0.23;0.23;;;16.80;99.90;;;;;;20449289;29;20331;-74
2021/04/21 16:18:21;;;;;;;0.40;0.30;;;16.90;99.90;;;;;;20448513;29;20391;-69
2021/04/21 16:28:25;;;;;;;0.20;0.20;;;16.40;99.90;;;;;;20447985;29;20725;-72
2021/04/21 16:38:27;;;;;;;0.30;0.30;;;16.30;99.90;;;;;;20447891;29;20380;-72
2021/04/21 16:48:31;;;;;;;0.50;0.50;;;16.10;99.90;;;;;;20447081;29;20612;-71
2021/04/21 16:58:36;;;;;;;0.40;0.40;;;16.00;99.90;;;;;;20430567;29;20196;-71
2021/04/21 17:08:39;;;;;;;0.20;0.10;;;15.80;99.90;;;;;;20450684;28;20657;-70
2021/04/21 17:18:43;;;;;;;4.20;1.17;;;16.80;99.90;;;;;;20468743;28;20657;-70
2021/04/21 17:28:48;;;;;;;1.23;0.43;;;18.10;99.90;;;;;;20543042;28;20200;-72
2021/04/21 17:38:51;;;;;;;0.30;0.27;;;16.60;99.90;;;;;;20480824;28;20217;-73
2021/04/21 17:48:56;;;;;;;0.50;0.40;;;15.80;99.90;;;;;;20462708;29;20275;-72
2021/04/21 17:58:58;;;;;;;0.20;0.20;;;15.20;99.90;;;;;;20463677;29;20610;-75
2021/04/21 18:09:02;;;;;;;1.90;1.37;;;14.60;99.90;;;;;;20461989;29;20392;-73
2021/04/21 18:19:05;;;;;;;0.20;0.00;;;14.50;99.90;;;;;;20460346;28;20221;-76
2021/04/21 18:29:09;;;;;;;0.20;0.10;;;14.00;99.90;;;;;;20458362;29;20575;-74
2021/04/21 18:39:11;;;;;;;0.40;0.40;;;13.80;99.90;;;;;;20459863;28;20233;-73
2021/04/21 18:49:16;;;;;;;0.40;0.20;;;13.70;99.90;;;;;;20457035;29;20193;-72
2021/04/21 18:59:18;;;;;;;0.80;0.40;;;13.60;99.90;;;;;;20440751;29;20715;-74
2021/04/21 19:09:22;;;;;;;0.20;0.20;;;13.50;99.90;;;;;;20439336;29;20233;-73
2021/04/21 19:19:24;;;;;;;0.60;0.60;;;13.30;99.90;;;;;;20470053;28;20520;-74
2021/04/21 19:29:28;;;;;;;0.20;0.20;;;13.20;99.90;;;;;;20466455;28;20263;-77
2021/04/21 19:39:31;;;;;;;0.20;0.10;;;13.00;99.90;;;;;;20440955;28;20463;-73
2021/04/21 19:49:34;;;;;;;0.20;0.10;;;13.00;99.90;;;;;;20434088;29;20209;-73
2021/04/21 19:59:38;;;;;;;0.20;0.10;;;12.90;99.90;;;;;;20435852;29;20473;-73
2021/04/21 20:09:43;;;;;;;0.20;0.00;;;12.70;99.90;;;;;;20452383;29;20237;-71
2021/04/21 20:19:46;;;;;;;1.23;0.50;;;12.60;99.90;;;;;;20449951;29;20399;-74
2021/04/21 20:29:50;;;;;;;0.47;0.47;;;12.60;99.90;;;;;;20450404;28;20201;-73
2021/04/21 20:39:53;;;;;;;0.33;0.30;;;12.50;99.90;;;;;;20503965;28;20694;-73
2021/04/21 20:49:57;;;;;;;0.30;0.30;;;12.40;99.90;;;;;;20448143;29;20795;-72
2021/04/21 20:59:59;;;;;;;0.20;0.10;;;12.30;99.90;;;;;;20449621;29;20235;-74
2021/04/21 21:10:05;;;;;;;0.30;0.30;;;12.20;99.90;;;;;;20448715;29;20319;-74
2021/04/21 21:20:08;;;;;;;0.30;0.30;;;12.10;99.90;;;;;;20434323;29;20397;-74
2021/04/21 21:30:14;;;;;;;0.40;0.40;;;12.10;99.90;;;;;;20445699;29;20579;-74
2021/04/21 21:40:21;;;;;;;0.20;0.10;;;12.20;99.90;;;;;;20451531;28;20701;-74
2021/04/21 21:50:24;;;;;;;0.20;0.10;;;12.20;99.90;;;;;;20449508;28;20204;-74
2021/04/21 22:00:29;;;;;;;0.23;0.23;;;12.30;99.90;;;;;;20462641;29;20725;-74
2021/04/21 22:10:32;;;;;;;0.20;0.10;;;12.20;99.90;;;;;;20465325;29;20236;-74
2021/04/21 22:20:39;;;;;;;0.37;0.37;;;12.30;99.90;;;;;;20482768;29;20259;-74
2021/04/21 22:30:44;;;;;;;0.20;0.20;;;12.30;99.90;;;;;;20461510;29;20208;-73
2021/04/21 22:40:47;;;;;;;0.30;0.30;;;12.30;99.90;;;;;;20531961;28;20703;-75
2021/04/21 22:50:50;;;;;;;0.20;0.10;;;12.30;99.90;;;;;;20539186;28;20559;-74
2021/04/21 23:00:54;;;;;;;0.20;0.10;;;12.40;99.90;;;;;;20521460;28;20231;-75
2021/04/21 23:10:59;;;;;;;0.20;0.10;;;12.50;99.90;;;;;;20457269;29;20563;-75
2021/04/21 23:21:02;;;;;;;0.30;0.30;;;12.40;99.90;;;;;;20455831;28;20291;-75
2021/04/21 23:31:05;;;;;;;2.40;0.40;;;12.20;99.90;;;;;;20456244;28;20205;-75
2021/04/21 23:41:08;;;;;;;0.20;0.10;;;12.20;99.90;;;;;;20435655;29;20224;-75
2021/04/21 23:51:11;;;;;;;0.70;0.40;;;12.10;99.90;;;;;;20457714;29;20564;-76
